Hargis, Louisiana
Current Conditions -  °F | °C
As of 12:55 AM on Monday 24 Nov 2014 (Local Time) from KIER Reporting Station
Clear Clear  
Wind Chill: 60°   Ceiling: Unl
Heat Index: 60°   Visibility: 10mi
Dew Point: 51°   Wind: 12mph
Humidity: 72%   Direction: 280°W
Pressure: 29.7"   Gusts: 20mph
Location:  31.6668°N, 92.8023°W
Report Text: KIER 240655Z AUTO 28010G17KT 10SM CLR 16/11 A2970 RMK AO2 T01570107
Loading
Personal Weather Stations






























Interactive Weather Map New forecast layout! Learn more

10-Day Weather Forecast

Advertisements
Track Severe Weather on mobile